sensor_id;sensor_type;location;lat;lon;timestamp;pressure;altitude;pressure_sealevel;temperature;humidity
9187;BME280;7273;48.902;9.410;2022-08-01T00:02:11;98005.28;;;22.28;43.87
9187;BME280;7273;48.902;9.410;2022-08-01T00:04:37;98003.84;;;22.18;44.16
9187;BME280;7273;48.902;9.410;2022-08-01T00:07:03;98004.03;;;22.25;44.07
9187;BME280;7273;48.902;9.410;2022-08-01T00:09:28;98002.97;;;22.30;43.92
9187;BME280;7273;48.902;9.410;2022-08-01T00:11:54;98008.22;;;22.19;44.18
9187;BME280;7273;48.902;9.410;2022-08-01T00:14:19;98010.97;;;22.19;44.22
9187;BME280;7273;48.902;9.410;2022-08-01T00:16:45;98011.91;;;22.11;44.47
9187;BME280;7273;48.902;9.410;2022-08-01T00:19:10;98004.91;;;22.14;44.32
9187;BME280;7273;48.902;9.410;2022-08-01T00:21:36;98008.91;;;22.01;44.71
9187;BME280;7273;48.902;9.410;2022-08-01T00:24:01;98007.63;;;21.98;44.78
9187;BME280;7273;48.902;9.410;2022-08-01T00:26:26;98009.50;;;21.94;44.85
9187;BME280;7273;48.902;9.410;2022-08-01T00:28:52;98004.03;;;21.82;45.03
9187;BME280;7273;48.902;9.410;2022-08-01T00:31:17;98011.16;;;21.83;45.14
9187;BME280;7273;48.902;9.410;2022-08-01T00:33:43;98021.25;;;21.79;45.05
9187;BME280;7273;48.902;9.410;2022-08-01T00:36:08;98011.16;;;21.71;45.33
9187;BME280;7273;48.902;9.410;2022-08-01T00:38:34;98012.66;;;21.81;45.14
9187;BME280;7273;48.902;9.410;2022-08-01T00:40:59;98012.53;;;21.77;45.19
9187;BME280;7273;48.902;9.410;2022-08-01T00:43:25;98010.72;;;21.69;45.25
9187;BME280;7273;48.902;9.410;2022-08-01T00:45:50;98019.03;;;21.57;45.48
9187;BME280;7273;48.902;9.410;2022-08-01T00:48:16;98018.69;;;21.59;45.50
9187;BME280;7273;48.902;9.410;2022-08-01T00:50:41;98019.28;;;21.52;45.75
9187;BME280;7273;48.902;9.410;2022-08-01T00:53:07;98008.69;;;21.54;45.68
9187;BME280;7273;48.902;9.410;2022-08-01T00:55:32;98020.41;;;21.51;45.71
9187;BME280;7273;48.902;9.410;2022-08-01T00:57:58;98011.97;;;21.44;45.74
9187;BME280;7273;48.902;9.410;2022-08-01T01:00:25;98022.84;;;21.41;45.96
9187;BME280;7273;48.902;9.410;2022-08-01T01:02:51;98023.56;;;21.38;45.97
9187;BME280;7273;48.902;9.410;2022-08-01T01:05:16;98022.16;;;21.31;46.02
9187;BME280;7273;48.902;9.410;2022-08-01T01:08:02;98023.47;;;21.22;46.77
9187;BME280;7273;48.902;9.410;2022-08-01T01:13:25;98019.00;;;21.17;46.76
9187;BME280;7273;48.902;9.410;2022-08-01T01:15:59;98028.72;;;21.15;46.85
9187;BME280;7273;48.902;9.410;2022-08-01T01:18:38;98025.88;;;21.11;47.28
9187;BME280;7273;48.902;9.410;2022-08-01T01:24:02;98024.16;;;21.07;46.98
9187;BME280;7273;48.902;9.410;2022-08-01T01:32:07;98031.13;;;20.92;47.19
9187;BME280;7273;48.902;9.410;2022-08-01T01:34:38;98033.28;;;20.87;47.06
9187;BME280;7273;48.902;9.410;2022-08-01T01:37:08;98027.00;;;20.86;47.08
9187;BME280;7273;48.902;9.410;2022-08-01T01:39:35;98028.94;;;20.86;46.91
9187;BME280;7273;48.902;9.410;2022-08-01T01:42:03;98034.09;;;20.87;47.02
9187;BME280;7273;48.902;9.410;2022-08-01T01:44:30;98035.97;;;20.83;47.02
9187;BME280;7273;48.902;9.410;2022-08-01T01:46:56;98036.38;;;20.85;47.07
9187;BME280;7273;48.902;9.410;2022-08-01T01:49:25;98028.50;;;20.84;47.23
9187;BME280;7273;48.902;9.410;2022-08-01T01:51:51;98036.63;;;20.80;47.28
9187;BME280;7273;48.902;9.410;2022-08-01T01:54:19;98039.47;;;20.84;47.23
9187;BME280;7273;48.902;9.410;2022-08-01T01:56:45;98036.63;;;20.80;47.07
9187;BME280;7273;48.902;9.410;2022-08-01T01:59:21;98040.06;;;20.89;47.64
9187;BME280;7273;48.902;9.410;2022-08-01T02:01:51;98042.59;;;20.82;47.37
9187;BME280;7273;48.902;9.410;2022-08-01T02:04:20;98036.53;;;20.77;47.49
9187;BME280;7273;48.902;9.410;2022-08-01T02:06:46;98040.19;;;20.81;47.40
9187;BME280;7273;48.902;9.410;2022-08-01T02:09:17;98036.72;;;20.84;47.64
9187;BME280;7273;48.902;9.410;2022-08-01T02:11:45;98042.94;;;20.81;47.56
9187;BME280;7273;48.902;9.410;2022-08-01T02:14:12;98037.09;;;20.82;47.40
9187;BME280;7273;48.902;9.410;2022-08-01T02:16:40;98041.31;;;20.92;47.24
9187;BME280;7273;48.902;9.410;2022-08-01T02:19:06;98037.44;;;20.93;47.32
9187;BME280;7273;48.902;9.410;2022-08-01T02:21:39;98040.66;;;20.95;47.66
9187;BME280;7273;48.902;9.410;2022-08-01T02:24:10;98041.94;;;20.97;50.36
9187;BME280;7273;48.902;9.410;2022-08-01T02:26:42;98046.50;;;20.93;47.32
9187;BME280;7273;48.902;9.410;2022-08-01T02:29:14;98044.53;;;20.94;47.54
9187;BME280;7273;48.902;9.410;2022-08-01T02:31:44;98049.34;;;20.85;47.65
9187;BME280;7273;48.902;9.410;2022-08-01T02:34:15;98057.59;;;20.85;47.84
9187;BME280;7273;48.902;9.410;2022-08-01T02:36:43;98050.84;;;20.70;47.93
9187;BME280;7273;48.902;9.410;2022-08-01T02:39:13;98054.84;;;20.73;48.17
9187;BME280;7273;48.902;9.410;2022-08-01T02:41:42;98056.09;;;20.63;48.27
9187;BME280;7273;48.902;9.410;2022-08-01T02:44:11;98055.84;;;20.56;48.55
9187;BME280;7273;48.902;9.410;2022-08-01T02:46:49;98057.69;;;20.52;48.88
9187;BME280;7273;48.902;9.410;2022-08-01T02:49:16;98058.25;;;20.58;48.39
9187;BME280;7273;48.902;9.410;2022-08-01T02:51:45;98058.13;;;20.54;48.45
9187;BME280;7273;48.902;9.410;2022-08-01T02:54:13;98057.81;;;20.56;48.57
9187;BME280;7273;48.902;9.410;2022-08-01T02:56:41;98059.84;;;20.47;48.67
9187;BME280;7273;48.902;9.410;2022-08-01T02:59:10;98057.91;;;20.47;48.85
9187;BME280;7273;48.902;9.410;2022-08-01T03:01:38;98059.88;;;20.59;48.66
9187;BME280;7273;48.902;9.410;2022-08-01T03:04:05;98061.00;;;20.58;48.60
9187;BME280;7273;48.902;9.410;2022-08-01T03:06:33;98065.03;;;20.60;48.74
9187;BME280;7273;48.902;9.410;2022-08-01T03:09:00;98057.00;;;20.55;48.91
9187;BME280;7273;48.902;9.410;2022-08-01T03:11:27;98058.91;;;20.43;49.11
9187;BME280;7273;48.902;9.410;2022-08-01T03:13:53;98071.16;;;20.45;49.19
9187;BME280;7273;48.902;9.410;2022-08-01T03:16:22;98054.81;;;20.49;49.31
9187;BME280;7273;48.902;9.410;2022-08-01T03:18:48;98067.97;;;20.43;49.30
9187;BME280;7273;48.902;9.410;2022-08-01T03:21:17;98055.94;;;20.48;49.14
9187;BME280;7273;48.902;9.410;2022-08-01T03:23:45;98069.91;;;20.43;49.29
9187;BME280;7273;48.902;9.410;2022-08-01T03:26:11;98062.38;;;20.52;49.13
9187;BME280;7273;48.902;9.410;2022-08-01T03:28:38;98071.47;;;20.32;49.54
9187;BME280;7273;48.902;9.410;2022-08-01T03:31:04;98064.72;;;20.29;49.52
9187;BME280;7273;48.902;9.410;2022-08-01T03:33:30;98069.22;;;20.13;49.82
9187;BME280;7273;48.902;9.410;2022-08-01T03:35:56;98078.75;;;20.16;49.74
9187;BME280;7273;48.902;9.410;2022-08-01T03:38:25;98067.81;;;20.07;49.92
9187;BME280;7273;48.902;9.410;2022-08-01T03:41:13;98074.59;;;20.10;51.58
9187;BME280;7273;48.902;9.410;2022-08-01T03:43:45;98077.47;;;20.13;50.17
9187;BME280;7273;48.902;9.410;2022-08-01T03:46:20;98077.34;;;20.10;50.52
9187;BME280;7273;48.902;9.410;2022-08-01T03:48:48;98084.75;;;20.09;50.11
9187;BME280;7273;48.902;9.410;2022-08-01T03:51:16;98079.94;;;20.06;49.92
9187;BME280;7273;48.902;9.410;2022-08-01T03:53:45;98079.94;;;20.06;50.23
9187;BME280;7273;48.902;9.410;2022-08-01T03:56:13;98079.47;;;20.04;50.10
9187;BME280;7273;48.902;9.410;2022-08-01T03:58:42;98078.66;;;20.03;50.06
9187;BME280;7273;48.902;9.410;2022-08-01T04:01:08;98077.16;;;19.94;50.34
9187;BME280;7273;48.902;9.410;2022-08-01T04:03:37;98084.13;;;19.91;50.50
9187;BME280;7273;48.902;9.410;2022-08-01T04:06:06;98085.78;;;19.84;50.96
9187;BME280;7273;48.902;9.410;2022-08-01T04:08:37;98083.25;;;19.79;51.18
9187;BME280;7273;48.902;9.410;2022-08-01T04:11:03;98086.81;;;19.79;50.76
9187;BME280;7273;48.902;9.410;2022-08-01T04:13:30;98092.28;;;19.79;50.81
9187;BME280;7273;48.902;9.410;2022-08-01T04:15:56;98089.38;;;19.64;51.17
9187;BME280;7273;48.902;9.410;2022-08-01T04:18:22;98085.06;;;19.54;51.55
9187;BME280;7273;48.902;9.410;2022-08-01T04:20:47;98091.97;;;19.60;51.30
9187;BME280;7273;48.902;9.410;2022-08-01T04:23:17;98090.75;;;19.49;51.77
9187;BME280;7273;48.902;9.410;2022-08-01T04:25:46;98092.22;;;19.47;51.73
9187;BME280;7273;48.902;9.410;2022-08-01T04:28:14;98091.69;;;19.53;51.69
9187;BME280;7273;48.902;9.410;2022-08-01T04:30:43;98097.69;;;19.67;51.37
9187;BME280;7273;48.902;9.410;2022-08-01T04:33:11;98105.69;;;19.60;51.58
9187;BME280;7273;48.902;9.410;2022-08-01T04:35:43;98104.28;;;19.75;51.19
9187;BME280;7273;48.902;9.410;2022-08-01T04:38:12;98094.66;;;19.69;51.38
9187;BME280;7273;48.902;9.410;2022-08-01T04:40:40;98101.81;;;19.82;51.07
9187;BME280;7273;48.902;9.410;2022-08-01T04:43:06;98099.28;;;19.77;51.45
9187;BME280;7273;48.902;9.410;2022-08-01T04:45:33;98100.66;;;19.83;51.30
9187;BME280;7273;48.902;9.410;2022-08-01T04:47:59;98105.13;;;19.87;51.28
9187;BME280;7273;48.902;9.410;2022-08-01T04:50:25;98099.97;;;19.86;51.35
9187;BME280;7273;48.902;9.410;2022-08-01T04:52:51;98103.53;;;19.86;51.41
9187;BME280;7273;48.902;9.410;2022-08-01T04:55:17;98094.56;;;19.98;51.14
9187;BME280;7273;48.902;9.410;2022-08-01T04:57:44;98098.56;;;20.00;51.37
9187;BME280;7273;48.902;9.410;2022-08-01T05:00:10;98095.75;;;20.09;50.97
9187;BME280;7273;48.902;9.410;2022-08-01T05:02:36;98091.19;;;20.13;51.15
9187;BME280;7273;48.902;9.410;2022-08-01T05:05:01;98101.19;;;20.18;51.29
9187;BME280;7273;48.902;9.410;2022-08-01T05:07:27;98096.97;;;20.20;51.16
9187;BME280;7273;48.902;9.410;2022-08-01T05:09:52;98095.72;;;20.30;51.04
9187;BME280;7273;48.902;9.410;2022-08-01T05:12:18;98091.03;;;20.30;51.35
9187;BME280;7273;48.902;9.410;2022-08-01T05:14:43;98088.56;;;20.37;51.21
9187;BME280;7273;48.902;9.410;2022-08-01T05:17:10;98089.69;;;20.36;51.48
9187;BME280;7273;48.902;9.410;2022-08-01T05:19:37;98091.78;;;20.51;51.35
9187;BME280;7273;48.902;9.410;2022-08-01T05:22:06;98088.81;;;20.56;51.49
9187;BME280;7273;48.902;9.410;2022-08-01T05:24:36;98081.41;;;20.69;51.16
9187;BME280;7273;48.902;9.410;2022-08-01T05:27:03;98084.16;;;20.81;51.28
9187;BME280;7273;48.902;9.410;2022-08-01T05:29:28;98088.41;;;20.90;51.33
9187;BME280;7273;48.902;9.410;2022-08-01T05:31:54;98098.75;;;20.93;51.41
9187;BME280;7273;48.902;9.410;2022-08-01T05:34:20;98094.78;;;21.03;51.48
9187;BME280;7273;48.902;9.410;2022-08-01T05:36:46;98097.16;;;21.16;51.42
9187;BME280;7273;48.902;9.410;2022-08-01T05:39:11;98098.19;;;21.24;51.42
9187;BME280;7273;48.902;9.410;2022-08-01T05:41:37;98104.84;;;21.35;51.38
9187;BME280;7273;48.902;9.410;2022-08-01T05:44:04;98096.34;;;21.52;51.12
9187;BME280;7273;48.902;9.410;2022-08-01T05:46:29;98106.84;;;21.62;51.10
9187;BME280;7273;48.902;9.410;2022-08-01T05:48:59;98103.84;;;21.67;51.15
9187;BME280;7273;48.902;9.410;2022-08-01T05:51:25;98103.72;;;21.76;51.32
9187;BME280;7273;48.902;9.410;2022-08-01T05:53:51;98105.16;;;21.82;51.18
9187;BME280;7273;48.902;9.410;2022-08-01T05:56:17;98100.28;;;21.91;51.14
9187;BME280;7273;48.902;9.410;2022-08-01T05:58:42;98102.44;;;21.97;51.27
9187;BME280;7273;48.902;9.410;2022-08-01T06:01:08;98107.09;;;22.09;51.21
9187;BME280;7273;48.902;9.410;2022-08-01T06:03:33;98113.00;;;22.23;51.03
9187;BME280;7273;48.902;9.410;2022-08-01T06:05:59;98118.94;;;22.37;50.78
9187;BME280;7273;48.902;9.410;2022-08-01T06:08:25;98116.44;;;22.32;51.07
9187;BME280;7273;48.902;9.410;2022-08-01T06:10:50;98113.56;;;22.28;51.21
9187;BME280;7273;48.902;9.410;2022-08-01T06:13:16;98115.47;;;22.40;51.24
9187;BME280;7273;48.902;9.410;2022-08-01T06:15:42;98115.97;;;22.57;50.86
9187;BME280;7273;48.902;9.410;2022-08-01T06:18:07;98120.47;;;22.78;50.68
9187;BME280;7273;48.902;9.410;2022-08-01T06:20:32;98121.38;;;22.97;50.48
9187;BME280;7273;48.902;9.410;2022-08-01T06:22:58;98121.72;;;22.96;50.69
9187;BME280;7273;48.902;9.410;2022-08-01T06:25:23;98119.41;;;23.13;50.53
9187;BME280;7273;48.902;9.410;2022-08-01T06:27:49;98121.25;;;23.25;50.56
9187;BME280;7273;48.902;9.410;2022-08-01T06:30:14;98111.56;;;23.15;50.74
9187;BME280;7273;48.902;9.410;2022-08-01T06:32:40;98119.22;;;23.37;50.76
9187;BME280;7273;48.902;9.410;2022-08-01T06:35:06;98119.94;;;23.50;50.69
9187;BME280;7273;48.902;9.410;2022-08-01T06:37:32;98119.88;;;23.65;50.43
9187;BME280;7273;48.902;9.410;2022-08-01T06:40:08;98119.09;;;23.65;51.28
9187;BME280;7273;48.902;9.410;2022-08-01T06:42:34;98116.72;;;23.48;51.01
9187;BME280;7273;48.902;9.410;2022-08-01T06:45:10;98123.63;;;23.73;51.43
9187;BME280;7273;48.902;9.410;2022-08-01T06:47:37;98130.91;;;23.81;50.66
9187;BME280;7273;48.902;9.410;2022-08-01T06:50:04;98128.44;;;23.76;50.68
9187;BME280;7273;48.902;9.410;2022-08-01T06:52:30;98126.22;;;23.66;51.06
9187;BME280;7273;48.902;9.410;2022-08-01T06:54:56;98127.03;;;23.51;51.38
9187;BME280;7273;48.902;9.410;2022-08-01T06:57:21;98123.38;;;23.62;51.08
9187;BME280;7273;48.902;9.410;2022-08-01T06:59:47;98121.69;;;23.58;51.09
9187;BME280;7273;48.902;9.410;2022-08-01T07:02:12;98127.44;;;23.68;51.08
9187;BME280;7273;48.902;9.410;2022-08-01T07:04:37;98129.00;;;23.85;50.84
9187;BME280;7273;48.902;9.410;2022-08-01T07:07:03;98123.91;;;24.03;50.75
9187;BME280;7273;48.902;9.410;2022-08-01T07:09:29;98125.44;;;24.00;50.77
9187;BME280;7273;48.902;9.410;2022-08-01T07:11:55;98117.44;;;24.14;50.66
9187;BME280;7273;48.902;9.410;2022-08-01T07:14:21;98118.09;;;24.08;50.82
9187;BME280;7273;48.902;9.410;2022-08-01T07:16:47;98120.41;;;24.25;50.84
9187;BME280;7273;48.902;9.410;2022-08-01T07:19:13;98129.78;;;24.39;50.51
9187;BME280;7273;48.902;9.410;2022-08-01T07:21:38;98120.06;;;24.45;50.50
9187;BME280;7273;48.902;9.410;2022-08-01T07:24:05;98122.53;;;24.31;50.98
9187;BME280;7273;48.902;9.410;2022-08-01T07:26:30;98119.25;;;24.45;50.64
9187;BME280;7273;48.902;9.410;2022-08-01T07:28:56;98124.13;;;24.51;50.62
9187;BME280;7273;48.902;9.410;2022-08-01T07:31:22;98122.16;;;24.52;50.77
9187;BME280;7273;48.902;9.410;2022-08-01T07:33:48;98123.41;;;24.35;51.09
9187;BME280;7273;48.902;9.410;2022-08-01T07:36:14;98122.00;;;24.45;51.01
9187;BME280;7273;48.902;9.410;2022-08-01T07:38:39;98116.19;;;24.50;51.00
9187;BME280;7273;48.902;9.410;2022-08-01T07:41:04;98124.91;;;24.71;50.54
9187;BME280;7273;48.902;9.410;2022-08-01T07:43:30;98120.56;;;24.70;50.66
9187;BME280;7273;48.902;9.410;2022-08-01T07:45:55;98108.94;;;24.64;50.82
9187;BME280;7273;48.902;9.410;2022-08-01T07:48:21;98121.25;;;24.86;50.53
9187;BME280;7273;48.902;9.410;2022-08-01T07:50:49;98115.34;;;24.87;50.70
9187;BME280;7273;48.902;9.410;2022-08-01T07:53:15;98120.44;;;25.08;50.32
9187;BME280;7273;48.902;9.410;2022-08-01T07:55:41;98118.72;;;25.00;50.50
9187;BME280;7273;48.902;9.410;2022-08-01T07:58:07;98115.09;;;25.18;50.34
9187;BME280;7273;48.902;9.410;2022-08-01T08:00:32;98109.34;;;25.31;50.20
9187;BME280;7273;48.902;9.410;2022-08-01T08:02:58;98106.88;;;25.26;50.72
9187;BME280;7273;48.902;9.410;2022-08-01T08:05:25;98107.47;;;25.35;50.47
9187;BME280;7273;48.902;9.410;2022-08-01T08:07:50;98115.03;;;25.38;50.19
9187;BME280;7273;48.902;9.410;2022-08-01T08:10:16;98112.13;;;25.53;50.19
9187;BME280;7273;48.902;9.410;2022-08-01T08:12:41;98109.47;;;25.64;50.12
9187;BME280;7273;48.902;9.410;2022-08-01T08:15:07;98107.91;;;25.63;50.14
9187;BME280;7273;48.902;9.410;2022-08-01T08:17:33;98114.50;;;25.81;49.93
9187;BME280;7273;48.902;9.410;2022-08-01T08:19:59;98117.97;;;25.74;50.01
9187;BME280;7273;48.902;9.410;2022-08-01T08:22:24;98112.56;;;25.85;50.04
9187;BME280;7273;48.902;9.410;2022-08-01T08:24:49;98120.09;;;25.88;49.68
9187;BME280;7273;48.902;9.410;2022-08-01T08:27:15;98116.69;;;25.98;49.89
9187;BME280;7273;48.902;9.410;2022-08-01T08:29:41;98113.13;;;25.97;49.70
9187;BME280;7273;48.902;9.410;2022-08-01T08:32:07;98117.41;;;25.91;50.05
9187;BME280;7273;48.902;9.410;2022-08-01T08:34:32;98115.00;;;25.90;49.79
9187;BME280;7273;48.902;9.410;2022-08-01T08:36:58;98111.22;;;25.75;50.00
9187;BME280;7273;48.902;9.410;2022-08-01T08:39:25;98116.34;;;25.73;50.45
9187;BME280;7273;48.902;9.410;2022-08-01T08:41:50;98111.19;;;25.72;50.21
9187;BME280;7273;48.902;9.410;2022-08-01T08:44:16;98110.09;;;25.76;49.93
9187;BME280;7273;48.902;9.410;2022-08-01T08:46:46;98103.34;;;26.03;49.78
9187;BME280;7273;48.902;9.410;2022-08-01T08:49:24;98104.53;;;26.06;49.92
9187;BME280;7273;48.902;9.410;2022-08-01T08:51:51;98100.78;;;26.21;49.62
9187;BME280;7273;48.902;9.410;2022-08-01T08:54:19;98099.66;;;25.96;49.83
9187;BME280;7273;48.902;9.410;2022-08-01T08:56:47;98104.78;;;25.94;49.61
9187;BME280;7273;48.902;9.410;2022-08-01T08:59:13;98108.63;;;25.86;49.77
9187;BME280;7273;48.902;9.410;2022-08-01T09:01:39;98108.47;;;26.01;49.63
9187;BME280;7273;48.902;9.410;2022-08-01T09:04:05;98113.88;;;25.94;49.86
9187;BME280;7273;48.902;9.410;2022-08-01T09:06:31;98114.47;;;26.07;49.32
9187;BME280;7273;48.902;9.410;2022-08-01T09:08:57;98108.94;;;26.07;49.54
9187;BME280;7273;48.902;9.410;2022-08-01T09:11:23;98110.13;;;26.09;49.32
9187;BME280;7273;48.902;9.410;2022-08-01T09:16:31;98108.34;;;26.24;49.30
9187;BME280;7273;48.902;9.410;2022-08-01T09:19:36;98116.53;;;26.13;49.35
9187;BME280;7273;48.902;9.410;2022-08-01T09:22:06;98113.09;;;26.23;49.28
9187;BME280;7273;48.902;9.410;2022-08-01T09:24:32;98106.84;;;26.30;48.84
9187;BME280;7273;48.902;9.410;2022-08-01T09:26:58;98111.63;;;26.33;49.11
9187;BME280;7273;48.902;9.410;2022-08-01T09:29:27;98114.75;;;26.28;49.20
9187;BME280;7273;48.902;9.410;2022-08-01T09:31:53;98115.16;;;26.30;48.95
9187;BME280;7273;48.902;9.410;2022-08-01T09:34:29;98106.25;;;26.47;49.08
9187;BME280;7273;48.902;9.410;2022-08-01T09:37:02;98118.19;;;26.51;49.19
9187;BME280;7273;48.902;9.410;2022-08-01T09:39:33;98115.41;;;26.51;49.13
9187;BME280;7273;48.902;9.410;2022-08-01T09:42:23;98108.88;;;26.33;49.40
9187;BME280;7273;48.902;9.410;2022-08-01T09:44:49;98111.78;;;26.47;48.93
9187;BME280;7273;48.902;9.410;2022-08-01T09:47:15;98123.41;;;26.56;49.01
9187;BME280;7273;48.902;9.410;2022-08-01T09:49:53;98116.25;;;26.55;49.01
9187;BME280;7273;48.902;9.410;2022-08-01T09:52:23;98108.41;;;26.64;48.89
9187;BME280;7273;48.902;9.410;2022-08-01T09:55:01;98111.50;;;26.56;48.95
9187;BME280;7273;48.902;9.410;2022-08-01T09:57:27;98118.06;;;26.74;48.54
9187;BME280;7273;48.902;9.410;2022-08-01T09:59:56;98115.03;;;26.86;48.58
9187;BME280;7273;48.902;9.410;2022-08-01T10:02:33;98111.09;;;26.90;48.96
9187;BME280;7273;48.902;9.410;2022-08-01T10:05:01;98103.63;;;26.98;48.62
9187;BME280;7273;48.902;9.410;2022-08-01T10:07:27;98115.69;;;27.16;48.49
9187;BME280;7273;48.902;9.410;2022-08-01T10:09:52;98110.41;;;27.00;48.68
9187;BME280;7273;48.902;9.410;2022-08-01T10:12:19;98103.03;;;26.78;48.75
9187;BME280;7273;48.902;9.410;2022-08-01T10:14:47;98110.84;;;26.66;48.92
9187;BME280;7273;48.902;9.410;2022-08-01T10:17:18;98107.09;;;26.84;48.58
9187;BME280;7273;48.902;9.410;2022-08-01T10:19:45;98102.88;;;27.04;48.11
9187;BME280;7273;48.902;9.410;2022-08-01T10:22:12;98100.94;;;27.08;48.16
9187;BME280;7273;48.902;9.410;2022-08-01T10:24:44;98093.13;;;27.24;48.03
9187;BME280;7273;48.902;9.410;2022-08-01T10:27:13;98099.63;;;27.39;47.76
9187;BME280;7273;48.902;9.410;2022-08-01T10:29:46;98096.09;;;27.45;47.92
9187;BME280;7273;48.902;9.410;2022-08-01T10:32:12;98088.28;;;27.65;47.59
9187;BME280;7273;48.902;9.410;2022-08-01T10:34:39;98094.38;;;27.85;47.39
9187;BME280;7273;48.902;9.410;2022-08-01T10:37:05;98098.44;;;27.98;47.23
9187;BME280;7273;48.902;9.410;2022-08-01T10:39:34;98096.88;;;28.00;47.19
9187;BME280;7273;48.902;9.410;2022-08-01T10:42:00;98098.91;;;28.14;46.90
9187;BME280;7273;48.902;9.410;2022-08-01T10:44:28;98089.84;;;28.27;46.97
9187;BME280;7273;48.902;9.410;2022-08-01T10:47:09;98084.31;;;28.34;46.89
9187;BME280;7273;48.902;9.410;2022-08-01T10:49:45;98087.56;;;28.54;46.61
9187;BME280;7273;48.902;9.410;2022-08-01T10:52:18;98087.63;;;28.75;46.47
9187;BME280;7273;48.902;9.410;2022-08-01T10:54:44;98086.06;;;28.95;46.46
9187;BME280;7273;48.902;9.410;2022-08-01T10:57:10;98083.69;;;29.11;46.43
9187;BME280;7273;48.902;9.410;2022-08-01T10:59:48;98089.66;;;29.24;45.72
9187;BME280;7273;48.902;9.410;2022-08-01T11:02:29;98086.06;;;29.30;45.47
9187;BME280;7273;48.902;9.410;2022-08-01T11:04:58;98086.47;;;29.32;45.99
9187;BME280;7273;48.902;9.410;2022-08-01T11:12:45;98070.94;;;29.56;45.47
9187;BME280;7273;48.902;9.410;2022-08-01T11:17:36;98070.53;;;29.50;45.51
9187;BME280;7273;48.902;9.410;2022-08-01T11:33:10;98058.97;;;29.55;45.28
9187;BME280;7273;48.902;9.410;2022-08-01T11:35:36;98053.78;;;29.68;45.16
9187;BME280;7273;48.902;9.410;2022-08-01T11:38:24;98053.03;;;29.67;44.04
9187;BME280;7273;48.902;9.410;2022-08-01T11:44:01;98045.41;;;29.64;44.06
9187;BME280;7273;48.902;9.410;2022-08-01T11:57:10;98037.66;;;30.21;44.52
9187;BME280;7273;48.902;9.410;2022-08-01T11:59:38;98026.59;;;30.03;44.45
9187;BME280;7273;48.902;9.410;2022-08-01T12:02:15;98033.78;;;29.97;43.80
9187;BME280;7273;48.902;9.410;2022-08-01T12:05:09;98033.38;;;29.95;43.33
9187;BME280;7273;48.902;9.410;2022-08-01T12:07:37;98029.00;;;29.94;44.19
9187;BME280;7273;48.902;9.410;2022-08-01T12:12:36;98033.81;;;29.90;44.03
9187;BME280;7273;48.902;9.410;2022-08-01T12:15:07;98029.44;;;29.82;43.76
9187;BME280;7273;48.902;9.410;2022-08-01T12:17:37;98023.50;;;29.80;43.93
9187;BME280;7273;48.902;9.410;2022-08-01T12:20:06;98017.09;;;29.83;44.04
9187;BME280;7273;48.902;9.410;2022-08-01T12:22:32;98018.31;;;29.61;44.21
9187;BME280;7273;48.902;9.410;2022-08-01T12:25:08;98022.72;;;29.55;43.11
9187;BME280;7273;48.902;9.410;2022-08-01T12:27:34;98019.91;;;29.73;44.13
9187;BME280;7273;48.902;9.410;2022-08-01T12:30:00;98018.69;;;29.84;43.97
9187;BME280;7273;48.902;9.410;2022-08-01T12:32:30;98017.84;;;29.94;44.04
9187;BME280;7273;48.902;9.410;2022-08-01T12:37:40;98002.69;;;29.95;43.34
9187;BME280;7273;48.902;9.410;2022-08-01T12:42:40;98011.56;;;29.62;43.92
9187;BME280;7273;48.902;9.410;2022-08-01T12:45:08;98006.38;;;29.75;43.88
9187;BME280;7273;48.902;9.410;2022-08-01T12:47:36;98010.28;;;29.98;43.71
9187;BME280;7273;48.902;9.410;2022-08-01T12:50:03;98004.59;;;30.12;43.43
9187;BME280;7273;48.902;9.410;2022-08-01T12:52:31;98009.78;;;30.14;43.23
9187;BME280;7273;48.902;9.410;2022-08-01T12:57:25;98005.25;;;30.45;43.08
9187;BME280;7273;48.902;9.410;2022-08-01T13:00:06;98005.34;;;30.27;41.30
9187;BME280;7273;48.902;9.410;2022-08-01T13:02:33;98002.84;;;30.43;43.29
9187;BME280;7273;48.902;9.410;2022-08-01T13:04:58;98005.44;;;30.06;43.75
9187;BME280;7273;48.902;9.410;2022-08-01T13:10:03;98002.25;;;30.07;43.45
9187;BME280;7273;48.902;9.410;2022-08-01T13:12:30;97989.22;;;29.83;43.52
9187;BME280;7273;48.902;9.410;2022-08-01T13:14:56;97985.16;;;29.95;43.15
9187;BME280;7273;48.902;9.410;2022-08-01T13:17:32;97998.63;;;30.10;42.57
9187;BME280;7273;48.902;9.410;2022-08-01T13:19:57;97989.53;;;29.96;43.31
9187;BME280;7273;48.902;9.410;2022-08-01T13:22:32;97990.78;;;29.81;43.19
9187;BME280;7273;48.902;9.410;2022-08-01T13:25:14;97999.63;;;29.55;42.95
9187;BME280;7273;48.902;9.410;2022-08-01T13:27:40;97990.50;;;29.47;43.61
9187;BME280;7273;48.902;9.410;2022-08-01T13:30:13;97995.28;;;29.43;43.52
9187;BME280;7273;48.902;9.410;2022-08-01T13:32:39;97991.66;;;29.50;43.50
9187;BME280;7273;48.902;9.410;2022-08-01T13:35:06;97986.47;;;29.55;43.50
9187;BME280;7273;48.902;9.410;2022-08-01T13:37:33;97984.53;;;29.45;43.62
9187;BME280;7273;48.902;9.410;2022-08-01T13:39:58;97987.69;;;29.51;43.47
9187;BME280;7273;48.902;9.410;2022-08-01T13:42:24;97983.28;;;29.57;43.51
9187;BME280;7273;48.902;9.410;2022-08-01T13:44:49;97976.13;;;29.56;43.46
9187;BME280;7273;48.902;9.410;2022-08-01T13:47:14;97984.94;;;29.33;43.73
9187;BME280;7273;48.902;9.410;2022-08-01T13:49:40;97980.56;;;29.29;43.66
9187;BME280;7273;48.902;9.410;2022-08-01T13:52:05;97982.19;;;29.26;43.59
9187;BME280;7273;48.902;9.410;2022-08-01T13:54:32;97980.56;;;29.36;43.50
9187;BME280;7273;48.902;9.410;2022-08-01T13:56:58;97982.94;;;29.48;43.11
9187;BME280;7273;48.902;9.410;2022-08-01T13:59:23;97974.94;;;29.57;42.91
9187;BME280;7273;48.902;9.410;2022-08-01T14:01:49;97976.13;;;29.59;43.13
9187;BME280;7273;48.902;9.410;2022-08-01T14:04:14;97972.94;;;29.54;43.12
9187;BME280;7273;48.902;9.410;2022-08-01T14:06:40;97959.84;;;29.40;42.99
9187;BME280;7273;48.902;9.410;2022-08-01T14:09:06;97972.59;;;29.34;43.05
9187;BME280;7273;48.902;9.410;2022-08-01T14:11:32;97973.03;;;29.22;43.19
9187;BME280;7273;48.902;9.410;2022-08-01T14:13:57;97973.06;;;29.12;43.21
9187;BME280;7273;48.902;9.410;2022-08-01T14:16:23;97979.00;;;29.03;43.02
9187;BME280;7273;48.902;9.410;2022-08-01T14:18:49;97979.00;;;28.89;43.26
9187;BME280;7273;48.902;9.410;2022-08-01T14:21:15;97980.59;;;28.79;43.32
9187;BME280;7273;48.902;9.410;2022-08-01T14:23:40;97979.00;;;28.71;43.25
9187;BME280;7273;48.902;9.410;2022-08-01T14:26:08;97981.00;;;28.64;43.33
9187;BME280;7273;48.902;9.410;2022-08-01T14:28:34;97978.22;;;28.60;43.22